createdAt,value
2018-05-03T00:02:57.088Z,10.40
2018-05-03T00:07:30.294Z,12.20
2018-05-03T00:12:03.499Z,9.50
2018-05-03T00:16:36.669Z,12.20
2018-05-03T00:21:09.854Z,10.30
2018-05-03T00:25:43.043Z,12.37
2018-05-03T00:30:16.239Z,17.27
2018-05-03T00:34:49.428Z,10.97
2018-05-03T00:39:22.663Z,17.00
2018-05-03T00:43:55.837Z,16.03
2018-05-03T00:48:29.043Z,14.20
2018-05-03T00:53:02.232Z,11.70
2018-05-03T00:57:36.191Z,11.90
2018-05-03T01:02:09.395Z,9.73
2018-05-03T01:06:42.560Z,11.43
2018-05-03T01:11:16.519Z,14.03
2018-05-03T01:15:49.702Z,13.27
2018-05-03T01:20:23.654Z,8.37
2018-05-03T01:24:56.837Z,9.33
2018-05-03T01:29:30.815Z,10.03
2018-05-03T01:34:03.993Z,13.90
2018-05-03T01:38:37.182Z,11.63
2018-05-03T01:43:10.371Z,9.57
2018-05-03T01:47:44.322Z,8.23
2018-05-03T01:52:17.509Z,8.67
2018-05-03T01:56:51.451Z,7.30
2018-05-03T02:01:24.630Z,12.27
2018-05-03T02:05:58.580Z,8.40
2018-05-03T02:10:31.768Z,8.40
2018-05-03T02:15:05.730Z,7.90
2018-05-03T02:19:38.889Z,11.50
2018-05-03T02:24:12.842Z,11.57
2018-05-03T02:28:46.027Z,7.63
2018-05-03T02:33:19.970Z,7.87
2018-05-03T02:37:53.185Z,9.13
2018-05-03T02:42:26.380Z,10.13
2018-05-03T02:46:59.570Z,9.43
2018-05-03T02:51:33.503Z,9.07
2018-05-03T02:56:07.454Z,8.67
2018-05-03T03:00:58.220Z,8.53
2018-05-03T03:05:50.559Z,9.33
2018-05-03T03:10:42.119Z,16.00
2018-05-03T03:15:33.709Z,11.23
2018-05-03T03:25:45.242Z,8.07
2018-05-03T03:30:36.227Z,10.13
2018-05-03T03:40:38.747Z,10.13
2018-05-03T03:45:11.938Z,11.20
2018-05-03T03:49:45.122Z,15.40
2018-05-03T03:54:18.301Z,10.03
2018-05-03T03:58:51.482Z,11.20
2018-05-03T04:03:25.402Z,9.97
2018-05-03T04:07:59.359Z,8.60
2018-05-03T04:12:32.563Z,11.37
2018-05-03T04:17:05.758Z,10.83
2018-05-03T04:21:50.946Z,10.30
2018-05-03T04:26:24.134Z,8.90
2018-05-03T04:30:58.053Z,10.37
2018-05-03T04:35:32.018Z,11.50
2018-05-03T04:40:05.326Z,10.43
2018-05-03T04:44:38.512Z,10.70
2018-05-03T04:49:12.455Z,9.47
2018-05-03T04:53:45.772Z,10.53
2018-05-03T04:58:18.947Z,10.47
2018-05-03T05:02:52.890Z,9.93
2018-05-03T05:07:26.106Z,12.87
2018-05-03T05:11:59.273Z,10.93
2018-05-03T05:16:33.235Z,13.63
2018-05-03T05:21:06.418Z,11.93
2018-05-03T05:25:39.611Z,11.13
2018-05-03T05:30:13.533Z,11.13
2018-05-03T05:34:47.486Z,25.77
2018-05-03T05:44:00.251Z,18.87
2018-05-03T05:48:33.513Z,14.60
2018-05-03T05:53:06.697Z,13.27
2018-05-03T05:57:39.885Z,12.97
2018-05-03T06:02:13.060Z,17.83
2018-05-03T06:06:46.624Z,13.97
2018-05-03T06:11:19.821Z,15.37
2018-05-03T06:15:53.019Z,21.00
2018-05-03T06:20:26.211Z,12.60
2018-05-03T06:24:59.413Z,17.30
2018-05-03T06:29:32.589Z,17.93
2018-05-03T06:34:05.798Z,17.50
2018-05-03T06:38:39.774Z,17.03
2018-05-03T06:43:12.962Z,15.77
2018-05-03T06:47:46.201Z,17.00
2018-05-03T06:52:19.430Z,16.30
2018-05-03T06:56:52.607Z,15.33
2018-05-03T07:01:25.811Z,14.33
2018-05-03T07:05:58.983Z,14.83
2018-05-03T07:10:32.374Z,16.23
2018-05-03T07:15:06.331Z,11.90
2018-05-03T07:19:39.525Z,12.23
2018-05-03T07:24:12.716Z,12.43
2018-05-03T07:28:46.667Z,12.98
2018-05-03T07:33:19.858Z,9.02
2018-05-03T07:37:53.240Z,12.50
2018-05-03T07:42:26.261Z,8.80
2018-05-03T07:47:00.272Z,7.72
2018-05-03T07:51:34.227Z,9.88
2018-05-03T07:56:07.431Z,6.68
2018-05-03T08:00:40.650Z,7.15
2018-05-03T08:05:13.818Z,6.57
2018-05-03T08:09:47.770Z,7.22
2018-05-03T08:14:20.963Z,6.05
2018-05-03T08:18:54.934Z,6.00
2018-05-03T08:23:28.186Z,5.47
2018-05-03T08:28:01.426Z,6.95
2018-05-03T08:32:34.609Z,4.90
2018-05-03T08:37:08.579Z,5.03
2018-05-03T08:41:41.779Z,5.12
2018-05-03T08:46:15.036Z,5.93
2018-05-03T08:50:48.986Z,6.43
2018-05-03T08:55:22.173Z,5.82
2018-05-03T08:59:56.126Z,9.07
2018-05-03T09:04:29.315Z,5.97
2018-05-03T09:09:03.034Z,5.75
2018-05-03T09:13:37.048Z,5.32
2018-05-03T09:18:10.302Z,5.85
2018-05-03T09:22:43.487Z,4.72
2018-05-03T09:27:16.682Z,6.60
2018-05-03T09:31:49.841Z,5.28
2018-05-03T09:36:23.078Z,5.05
2018-05-03T09:40:57.028Z,5.07
2018-05-03T09:45:30.210Z,8.98
2018-05-03T09:50:04.194Z,5.78
2018-05-03T09:54:37.358Z,3.78
2018-05-03T09:59:10.565Z,4.57
2018-05-03T10:03:43.757Z,4.18
2018-05-03T10:08:17.744Z,4.43
2018-05-03T10:12:50.921Z,5.37
2018-05-03T10:17:24.105Z,4.20
2018-05-03T10:21:57.291Z,5.47
2018-05-03T10:26:31.250Z,5.53
2018-05-03T10:31:04.433Z,5.40
2018-05-03T10:35:38.458Z,5.70
2018-05-03T10:40:11.573Z,6.57
2018-05-03T10:44:44.755Z,6.03
2018-05-03T10:49:17.941Z,6.03
2018-05-03T10:53:51.126Z,6.05
2018-05-03T10:58:24.322Z,5.53
2018-05-03T11:02:57.485Z,5.30
2018-05-03T11:07:31.467Z,5.43
2018-05-03T11:12:04.654Z,6.25
2018-05-03T11:16:37.903Z,5.18
2018-05-03T11:21:11.350Z,6.95
2018-05-03T11:25:44.546Z,4.50
2018-05-03T11:30:18.495Z,5.75
2018-05-03T11:34:51.684Z,4.05
2018-05-03T11:39:25.703Z,4.43
2018-05-03T11:43:59.645Z,5.03
2018-05-03T11:48:32.830Z,4.68
2018-05-03T11:53:07.391Z,4.32
2018-05-03T11:57:40.613Z,6.60
2018-05-03T12:02:13.839Z,4.03
2018-05-03T12:06:47.026Z,9.23
2018-05-03T12:11:20.214Z,4.00
2018-05-03T12:15:53.414Z,3.35
2018-05-03T12:20:27.406Z,4.20
2018-05-03T12:25:00.597Z,4.30
2018-05-03T12:29:33.838Z,3.70
2018-05-03T12:34:07.029Z,5.18
2018-05-03T12:38:40.999Z,4.90
2018-05-03T12:43:14.186Z,6.35
2018-05-03T12:47:48.143Z,6.07
2018-05-03T12:52:21.333Z,6.20
2018-05-03T12:56:54.527Z,8.02
2018-05-03T13:01:28.478Z,5.15
2018-05-03T13:06:01.681Z,4.95
2018-05-03T13:10:34.949Z,4.95
2018-05-03T13:15:08.144Z,5.12
2018-05-03T13:19:49.066Z,6.60
2018-05-03T13:24:24.192Z,8.07
2018-05-03T13:28:57.454Z,6.35
2018-05-03T13:33:30.618Z,4.72
2018-05-03T13:38:04.547Z,4.62
2018-05-03T13:42:39.444Z,5.43
2018-05-03T13:47:12.627Z,6.62
2018-05-03T13:51:45.830Z,10.63
2018-05-03T13:56:19.001Z,4.22
2018-05-03T14:00:52.985Z,7.35
2018-05-03T14:05:26.198Z,6.53
2018-05-03T14:09:59.353Z,4.78
2018-05-03T14:14:32.542Z,5.03
2018-05-03T14:19:06.489Z,4.22
2018-05-03T14:23:39.672Z,4.80
2018-05-03T14:28:12.853Z,3.40
2018-05-03T14:32:46.038Z,3.47
2018-05-03T14:37:19.246Z,3.03
2018-05-03T14:41:52.482Z,3.87
2018-05-03T14:46:25.676Z,3.72
2018-05-03T14:50:58.859Z,6.10
2018-05-03T14:55:32.102Z,2.87
2018-05-03T15:00:05.319Z,3.08
2018-05-03T15:04:38.510Z,5.55
2018-05-03T15:09:11.690Z,5.07
2018-05-03T15:13:45.086Z,3.78
2018-05-03T15:18:18.307Z,4.18
2018-05-03T15:22:51.468Z,5.10
2018-05-03T15:27:25.418Z,2.75
2018-05-03T15:31:58.599Z,4.10
2018-05-03T15:36:32.559Z,4.03
2018-05-03T15:41:05.752Z,2.78
2018-05-03T15:45:39.098Z,5.62
2018-05-03T15:50:12.304Z,2.95
2018-05-03T15:54:45.543Z,4.25
2018-05-03T15:59:18.876Z,3.92
2018-05-03T16:03:52.826Z,2.85
2018-05-03T16:08:26.192Z,5.97
2018-05-03T16:13:00.453Z,4.05
2018-05-03T16:17:33.633Z,5.57
2018-05-03T16:22:07.673Z,3.28
2018-05-03T16:26:41.622Z,5.57
2018-05-03T16:31:15.634Z,2.75
2018-05-03T16:35:48.920Z,3.22
2018-05-03T16:40:22.966Z,4.32
2018-05-03T16:44:56.118Z,3.08
2018-05-03T16:49:29.302Z,6.25
2018-05-03T16:54:02.563Z,5.50
2018-05-03T16:58:36.513Z,7.37
2018-05-03T17:03:09.794Z,5.57
2018-05-03T17:07:43.842Z,5.28
2018-05-03T17:12:17.020Z,2.87
2018-05-03T17:16:50.456Z,5.57
2018-05-03T17:21:24.456Z,4.55
2018-05-03T17:25:57.592Z,5.72
2018-05-03T17:30:30.779Z,5.10
2018-05-03T17:35:04.734Z,4.97
2018-05-03T17:39:37.926Z,3.60
2018-05-03T17:44:11.120Z,6.32
2018-05-03T17:48:45.074Z,6.85
2018-05-03T17:53:18.256Z,4.28
2018-05-03T17:57:52.182Z,5.55
2018-05-03T18:02:26.147Z,5.75
2018-05-03T18:06:59.450Z,9.05
2018-05-03T18:11:32.616Z,6.57
2018-05-03T18:16:05.839Z,8.30
2018-05-03T18:20:39.063Z,6.68
2018-05-03T18:25:12.418Z,8.35
2018-05-03T18:29:45.612Z,6.80
2018-05-03T18:34:18.813Z,9.63
2018-05-03T18:38:52.175Z,12.25
2018-05-03T18:43:25.686Z,8.77
2018-05-03T18:47:58.886Z,8.68
2018-05-03T18:52:33.121Z,10.85
2018-05-03T18:57:07.075Z,6.03
2018-05-03T19:01:40.270Z,10.68
2018-05-03T19:06:13.494Z,9.98
2018-05-03T19:10:46.700Z,8.95
2018-05-03T19:15:19.877Z,7.37
2018-05-03T19:19:53.066Z,8.02
2018-05-03T19:24:27.021Z,9.07
2018-05-03T19:29:01.047Z,14.35
2018-05-03T19:33:34.248Z,20.83
2018-05-03T19:38:07.411Z,9.80
2018-05-03T19:42:40.597Z,9.98
2018-05-03T19:47:13.783Z,7.95
2018-05-03T19:51:47.054Z,6.55
2018-05-03T19:56:20.994Z,9.13
2018-05-03T20:00:54.274Z,11.30
2018-05-03T20:05:27.473Z,7.37
2018-05-03T20:10:01.482Z,9.18
2018-05-03T20:14:34.791Z,7.55
2018-05-03T20:19:08.135Z,8.88
2018-05-03T20:23:42.459Z,7.80
2018-05-03T20:28:16.141Z,6.43
2018-05-03T20:32:49.517Z,8.50
2018-05-03T20:37:22.644Z,8.13
2018-05-03T20:41:56.493Z,7.63
2018-05-03T20:46:29.758Z,11.27
2018-05-03T20:51:03.001Z,11.10
2018-05-03T20:55:37.641Z,12.33
2018-05-03T21:00:10.828Z,10.87
2018-05-03T21:04:44.205Z,13.57
2018-05-03T21:09:18.153Z,8.20
2018-05-03T21:13:51.341Z,18.50
2018-05-03T21:18:24.541Z,7.87
2018-05-03T21:22:58.536Z,11.00
2018-05-03T21:27:31.722Z,9.97
2018-05-03T21:32:04.963Z,7.40
2018-05-03T21:36:39.986Z,8.73
2018-05-03T21:41:13.145Z,10.83
2018-05-03T21:45:46.441Z,15.77
2018-05-03T21:50:21.344Z,19.33
2018-05-03T21:54:54.525Z,9.63
2018-05-03T21:59:28.578Z,5.87
2018-05-03T22:04:01.765Z,10.40
2018-05-03T22:08:36.073Z,10.63
2018-05-03T22:13:09.229Z,7.20
2018-05-03T22:17:42.413Z,11.47
2018-05-03T22:22:15.684Z,14.67
2018-05-03T22:26:48.873Z,10.70
2018-05-03T22:31:23.683Z,28.57
2018-05-03T22:35:57.024Z,30.17
2018-05-03T22:40:30.255Z,82.80
2018-05-03T22:45:03.446Z,26.03
2018-05-03T22:49:37.673Z,49.50
2018-05-03T22:54:12.333Z,57.97
2018-05-03T22:58:45.587Z,24.27
2018-05-03T23:03:18.907Z,34.77
2018-05-03T23:07:52.205Z,28.07
2018-05-03T23:12:26.193Z,41.87
2018-05-03T23:16:59.394Z,45.13
2018-05-03T23:21:32.666Z,14.00
2018-05-03T23:26:05.859Z,17.90
2018-05-03T23:30:39.050Z,20.80
2018-05-03T23:35:12.238Z,32.60
2018-05-03T23:39:45.433Z,26.77
2018-05-03T23:44:18.634Z,29.37
2018-05-03T23:48:51.941Z,28.40
2018-05-03T23:53:25.142Z,22.00
2018-05-03T23:58:02.742Z,24.80
